createdAt,value
2023-03-26T00:01:47.305Z,1.60
2023-03-26T00:04:19.871Z,1.48
2023-03-26T00:06:50.503Z,1.30
2023-03-26T00:09:23.079Z,1.17
2023-03-26T00:11:52.784Z,1.40
2023-03-26T00:14:22.461Z,1.20
2023-03-26T00:16:53.925Z,1.33
2023-03-26T00:19:23.640Z,1.02
2023-03-26T00:21:53.521Z,1.73
2023-03-26T00:24:30.134Z,1.52
2023-03-26T00:26:59.954Z,1.52
2023-03-26T00:29:33.452Z,1.70
2023-03-26T00:32:03.195Z,1.98
2023-03-26T00:34:34.625Z,2.05
2023-03-26T00:37:04.424Z,1.80
2023-03-26T00:39:37.642Z,2.13
2023-03-26T00:42:08.443Z,1.58
2023-03-26T00:44:38.411Z,1.40
2023-03-26T00:47:08.129Z,1.73
2023-03-26T00:49:37.859Z,1.95
2023-03-26T00:52:08.868Z,2.00
2023-03-26T00:54:41.869Z,2.00
2023-03-26T00:57:20.214Z,1.70
2023-03-26T00:59:55.723Z,1.75
2023-03-26T01:02:27.485Z,1.70
2023-03-26T01:04:58.368Z,1.35
2023-03-26T01:07:29.355Z,1.60
2023-03-26T01:10:02.622Z,2.75
2023-03-26T01:12:34.101Z,1.65
2023-03-26T01:15:04.772Z,2.03
2023-03-26T01:17:38.135Z,2.00
2023-03-26T01:20:15.286Z,1.85
2023-03-26T01:22:46.861Z,1.50
2023-03-26T01:25:19.250Z,2.13
2023-03-26T01:27:50.775Z,1.75
2023-03-26T01:30:24.597Z,2.40
2023-03-26T01:33:01.133Z,1.30
2023-03-26T01:35:35.380Z,1.75
2023-03-26T01:38:11.191Z,1.70
2023-03-26T01:40:47.253Z,2.20
2023-03-26T01:43:21.080Z,1.55
2023-03-26T01:45:52.369Z,2.33
2023-03-26T01:48:22.300Z,2.38
2023-03-26T01:50:56.529Z,1.48
2023-03-26T01:53:26.300Z,1.70
2023-03-26T01:56:02.778Z,1.85
2023-03-26T01:58:34.855Z,2.15
2023-03-26T02:01:09.073Z,2.80
2023-03-26T02:03:41.526Z,2.20
2023-03-26T02:06:15.966Z,2.22
2023-03-26T02:08:48.999Z,2.10
2023-03-26T02:11:23.040Z,1.67
2023-03-26T02:13:53.714Z,2.03
2023-03-26T02:16:23.674Z,1.75
2023-03-26T02:18:55.933Z,1.88
2023-03-26T02:21:26.943Z,2.40
2023-03-26T02:24:04.363Z,2.03
2023-03-26T02:26:41.646Z,2.10
2023-03-26T02:29:14.557Z,1.73
2023-03-26T02:31:47.367Z,2.20
2023-03-26T02:34:17.181Z,1.48
2023-03-26T02:36:57.426Z,1.83
2023-03-26T02:39:28.394Z,1.77
2023-03-26T02:42:04.739Z,1.70
2023-03-26T02:44:40.588Z,2.17
2023-03-26T02:47:22.773Z,2.20
2023-03-26T02:49:55.324Z,2.83
2023-03-26T02:52:45.554Z,2.00
2023-03-26T02:55:15.542Z,1.80
2023-03-26T02:57:49.437Z,1.33
2023-03-26T03:00:22.996Z,2.08
2023-03-26T03:03:11.285Z,1.92
2023-03-26T03:06:01.160Z,2.00
2023-03-26T03:08:34.520Z,1.90
2023-03-26T03:11:05.107Z,1.35
2023-03-26T03:13:44.960Z,1.35
2023-03-26T03:16:20.242Z,2.35
2023-03-26T03:18:54.863Z,1.27
2023-03-26T03:21:26.520Z,1.58
2023-03-26T03:23:56.454Z,1.85
2023-03-26T03:26:30.953Z,1.85
2023-03-26T03:29:09.055Z,2.00
2023-03-26T03:31:38.947Z,1.92
2023-03-26T03:34:12.911Z,1.70
2023-03-26T03:36:48.687Z,2.38
2023-03-26T03:39:31.172Z,0.98
2023-03-26T03:42:00.938Z,2.30
2023-03-26T03:44:33.804Z,2.03
2023-03-26T03:47:07.164Z,1.23
2023-03-26T03:49:37.136Z,1.88
2023-03-26T03:52:07.113Z,1.83
2023-03-26T03:54:42.656Z,1.33
2023-03-26T03:57:23.765Z,1.85
2023-03-26T04:00:09.295Z,2.33
2023-03-26T04:02:58.164Z,0.95
2023-03-26T04:05:30.516Z,1.83
2023-03-26T04:08:00.307Z,2.28
2023-03-26T04:10:30.022Z,1.90
2023-03-26T04:13:14.988Z,1.77
2023-03-26T04:16:07.938Z,1.15
2023-03-26T04:18:38.546Z,1.40
2023-03-26T04:21:17.130Z,2.05
2023-03-26T04:23:48.208Z,1.65
2023-03-26T04:26:44.056Z,1.20
2023-03-26T04:29:22.193Z,1.30
2023-03-26T04:31:58.891Z,1.73
2023-03-26T04:34:30.181Z,1.10
2023-03-26T04:37:12.408Z,1.73
2023-03-26T04:39:48.168Z,1.40
2023-03-26T04:42:41.950Z,1.60
2023-03-26T04:45:32.184Z,1.63
2023-03-26T04:48:04.552Z,1.50
2023-03-26T04:50:34.402Z,1.60
2023-03-26T04:53:05.032Z,1.90
2023-03-26T04:55:55.223Z,1.20
2023-03-26T04:58:44.995Z,1.15
2023-03-26T05:01:16.864Z,1.45
2023-03-26T05:03:51.011Z,1.40
2023-03-26T05:06:21.005Z,1.65
2023-03-26T05:08:51.335Z,1.05
2023-03-26T05:11:38.401Z,1.52
2023-03-26T05:14:08.290Z,1.05
2023-03-26T05:16:39.708Z,0.65
2023-03-26T05:19:13.926Z,1.52
2023-03-26T05:21:43.684Z,1.17
2023-03-26T05:24:14.153Z,1.40
2023-03-26T05:26:44.069Z,1.15
2023-03-26T05:29:13.974Z,17.52
2023-03-26T05:31:48.896Z,6.30
2023-03-26T05:34:24.353Z,3.47
2023-03-26T05:36:54.087Z,13.65
2023-03-26T05:39:55.180Z,4.40
2023-03-26T05:42:56.856Z,10.90
2023-03-26T05:45:37.330Z,5.55
2023-03-26T05:48:22.611Z,1.60
2023-03-26T05:50:56.243Z,3.08
2023-03-26T05:53:27.982Z,1.88
2023-03-26T05:59:04.542Z,1.25
2023-03-26T06:01:54.883Z,2.35
2023-03-26T06:04:51.221Z,2.33
2023-03-26T06:07:36.870Z,1.80
2023-03-26T06:10:18.403Z,1.50
2023-03-26T06:12:49.878Z,1.58
2023-03-26T06:15:21.442Z,1.90
2023-03-26T06:20:39.521Z,1.90
2023-03-26T06:23:19.837Z,1.45
2023-03-26T06:26:18.831Z,1.88
2023-03-26T06:29:02.113Z,20.30
2023-03-26T06:31:40.320Z,1.90
2023-03-26T06:34:36.080Z,1.50
2023-03-26T06:37:06.052Z,1.48
2023-03-26T06:39:38.431Z,1.52
2023-03-26T06:42:18.014Z,1.95
2023-03-26T06:45:12.827Z,1.70
2023-03-26T06:48:00.933Z,1.92
2023-03-26T06:50:49.800Z,2.63
2023-03-26T06:53:38.373Z,1.95
2023-03-26T06:56:22.549Z,3.13
2023-03-26T06:59:02.502Z,2.25
2023-03-26T07:01:50.490Z,1.30
2023-03-26T07:04:49.135Z,1.17
2023-03-26T07:07:40.507Z,1.20
2023-03-26T07:10:35.559Z,1.20
2023-03-26T07:13:37.771Z,1.10
2023-03-26T07:16:36.812Z,2.10
2023-03-26T07:19:24.089Z,1.58
2023-03-26T07:21:55.121Z,2.75
2023-03-26T07:24:43.729Z,2.63
2023-03-26T07:27:39.654Z,1.27
2023-03-26T07:30:14.864Z,3.20
2023-03-26T07:32:56.345Z,2.60
2023-03-26T07:35:47.991Z,2.53
2023-03-26T07:38:40.635Z,3.38
2023-03-26T07:41:33.605Z,3.03
2023-03-26T07:44:36.069Z,4.57
2023-03-26T07:47:27.636Z,1.90
2023-03-26T07:50:19.105Z,1.88
2023-03-26T07:53:18.646Z,3.20
2023-03-26T07:56:19.423Z,1.52
2023-03-26T07:59:23.327Z,3.70
2023-03-26T08:02:26.278Z,1.40
2023-03-26T08:05:18.967Z,1.10
2023-03-26T08:08:05.981Z,2.58
2023-03-26T08:10:46.628Z,1.50
2023-03-26T08:15:57.876Z,1.45
2023-03-26T08:18:32.837Z,1.50
2023-03-26T08:21:09.750Z,1.40
2023-03-26T08:23:51.004Z,2.30
2023-03-26T08:26:29.719Z,1.30
2023-03-26T08:29:05.032Z,1.80
2023-03-26T08:31:36.360Z,1.70
2023-03-26T08:34:06.375Z,1.50
2023-03-26T08:36:38.678Z,2.42
2023-03-26T08:39:09.206Z,0.63
2023-03-26T08:41:54.055Z,2.83
2023-03-26T08:44:50.826Z,3.20
2023-03-26T08:47:37.202Z,1.80
2023-03-26T08:50:21.681Z,1.33
2023-03-26T08:53:10.796Z,1.52
2023-03-26T08:55:47.885Z,1.33
2023-03-26T08:58:34.900Z,1.40
2023-03-26T09:01:24.804Z,1.73
2023-03-26T09:04:01.776Z,1.50
2023-03-26T09:06:50.849Z,1.27
2023-03-26T09:09:35.627Z,1.50
2023-03-26T09:12:17.592Z,1.45
2023-03-26T09:14:58.840Z,2.03
2023-03-26T09:17:47.615Z,1.38
2023-03-26T09:27:58.831Z,2.05
2023-03-26T09:30:46.210Z,2.30
2023-03-26T09:33:26.415Z,10.93
2023-03-26T09:36:06.435Z,2.05
2023-03-26T09:38:42.111Z,1.75
2023-03-26T09:41:16.959Z,1.20
2023-03-26T09:44:01.596Z,2.30
2023-03-26T09:46:37.413Z,2.75
2023-03-26T09:49:23.945Z,3.08
2023-03-26T09:52:01.780Z,2.20
2023-03-26T09:54:48.593Z,2.63
2023-03-26T09:57:28.344Z,3.28
2023-03-26T10:00:04.996Z,2.03
2023-03-26T10:02:52.537Z,3.13
2023-03-26T10:05:39.328Z,1.85
2023-03-26T10:08:24.910Z,3.13
2023-03-26T10:10:57.580Z,2.10
2023-03-26T10:13:33.818Z,6.50
2023-03-26T10:16:09.474Z,1.08
2023-03-26T10:18:48.945Z,1.20
2023-03-26T10:21:25.649Z,1.23
2023-03-26T10:24:01.265Z,1.10
2023-03-26T10:26:40.197Z,1.10
2023-03-26T10:29:14.977Z,1.73
2023-03-26T10:31:49.075Z,1.27
2023-03-26T10:34:34.570Z,2.10
2023-03-26T10:37:09.757Z,1.40
2023-03-26T10:40:06.951Z,0.70
2023-03-26T10:43:01.878Z,1.00
2023-03-26T10:45:39.392Z,0.70
2023-03-26T10:48:30.499Z,3.05
2023-03-26T10:51:18.070Z,1.67
2023-03-26T10:53:53.121Z,1.45
2023-03-26T10:56:26.368Z,1.75
2023-03-26T10:58:57.644Z,2.28
2023-03-26T11:01:35.523Z,2.85
2023-03-26T11:04:12.258Z,1.98
2023-03-26T11:06:47.257Z,2.70
2023-03-26T11:09:23.906Z,3.15
2023-03-26T11:11:56.565Z,1.80
2023-03-26T11:14:34.887Z,0.98
2023-03-26T11:17:08.518Z,1.90
2023-03-26T11:19:45.885Z,1.70
2023-03-26T11:22:20.721Z,4.97
2023-03-26T11:25:05.776Z,5.93
2023-03-26T11:27:44.702Z,2.92
2023-03-26T11:30:21.128Z,7.72
2023-03-26T11:32:53.400Z,1.85
2023-03-26T11:35:40.107Z,1.50
2023-03-26T11:38:16.482Z,1.48
2023-03-26T11:40:51.160Z,2.05
2023-03-26T11:43:52.613Z,3.53
2023-03-26T11:46:24.746Z,1.45
2023-03-26T11:48:57.629Z,1.80
2023-03-26T11:51:29.869Z,1.50
2023-03-26T11:54:00.218Z,1.65
2023-03-26T11:56:33.994Z,2.10
2023-03-26T11:59:07.789Z,2.55
2023-03-26T12:01:51.191Z,1.65
2023-03-26T12:04:22.156Z,2.15
2023-03-26T12:06:56.882Z,1.42
2023-03-26T12:09:27.275Z,1.75
2023-03-26T12:11:59.874Z,2.80
2023-03-26T12:14:33.087Z,1.70
2023-03-26T12:17:04.790Z,1.67
2023-03-26T12:19:39.634Z,2.22
2023-03-26T12:22:09.937Z,1.02
2023-03-26T12:24:39.614Z,1.50
2023-03-26T12:27:23.661Z,1.10
2023-03-26T12:30:01.488Z,1.20
2023-03-26T12:32:45.651Z,1.35
2023-03-26T12:35:19.386Z,2.03
2023-03-26T12:37:49.770Z,1.90
2023-03-26T12:40:30.209Z,1.70
2023-03-26T12:44:50.228Z,1.55
2023-03-26T12:47:26.471Z,1.13
2023-03-26T12:48:46.976Z,1.30
2023-03-26T12:51:20.465Z,1.20
2023-03-26T12:53:58.756Z,1.25
2023-03-26T12:56:36.553Z,1.65
2023-03-26T12:59:11.997Z,1.45
2023-03-26T13:01:55.069Z,0.95
2023-03-26T13:04:39.755Z,1.40
2023-03-26T13:07:15.532Z,1.30
2023-03-26T13:09:53.137Z,1.20
2023-03-26T13:12:29.701Z,0.80
2023-03-26T13:15:10.120Z,1.02
2023-03-26T13:17:45.528Z,1.10
2023-03-26T13:20:19.241Z,2.00
2023-03-26T13:22:51.841Z,1.10
2023-03-26T13:25:26.972Z,1.42
2023-03-26T13:28:00.648Z,1.98
2023-03-26T13:30:34.228Z,1.85
2023-03-26T13:33:27.860Z,2.15
2023-03-26T13:36:19.194Z,1.10
2023-03-26T13:38:58.622Z,1.60
2023-03-26T13:41:33.154Z,1.40
2023-03-26T13:44:06.885Z,2.20
2023-03-26T13:46:38.611Z,1.95
2023-03-26T13:49:13.276Z,1.05
2023-03-26T13:51:47.216Z,1.23
2023-03-26T13:54:19.966Z,0.80
2023-03-26T13:56:51.156Z,1.27
2023-03-26T13:59:23.615Z,1.20
2023-03-26T14:01:56.884Z,1.23
2023-03-26T14:04:32.388Z,1.70
2023-03-26T14:07:07.006Z,1.30
2023-03-26T14:09:41.021Z,2.63
2023-03-26T14:12:24.847Z,2.47
2023-03-26T14:14:56.441Z,1.33
2023-03-26T14:17:28.178Z,1.20
2023-03-26T14:20:12.673Z,1.10
2023-03-26T14:22:49.260Z,2.60
2023-03-26T14:25:30.283Z,1.83
2023-03-26T14:28:13.692Z,2.90
2023-03-26T14:30:51.306Z,2.03
2023-03-26T14:33:38.785Z,1.52
2023-03-26T14:36:12.749Z,1.20
2023-03-26T14:39:00.157Z,1.40
2023-03-26T14:41:33.007Z,3.33
2023-03-26T14:44:16.725Z,3.75
2023-03-26T14:46:52.974Z,1.88
2023-03-26T14:49:28.664Z,3.47
2023-03-26T14:52:02.187Z,5.25
2023-03-26T14:54:36.401Z,1.27
2023-03-26T14:57:21.725Z,2.00
2023-03-26T15:00:16.037Z,1.33
2023-03-26T15:03:03.429Z,4.95
2023-03-26T15:05:52.516Z,3.95
2023-03-26T15:08:46.258Z,2.50
2023-03-26T15:11:26.299Z,3.90
2023-03-26T15:14:04.004Z,2.20
2023-03-26T15:17:01.870Z,2.22
2023-03-26T15:19:58.762Z,2.15
2023-03-26T15:22:45.147Z,1.40
2023-03-26T15:25:28.402Z,3.17
2023-03-26T15:28:12.424Z,1.70
2023-03-26T15:31:10.179Z,1.38
2023-03-26T15:34:06.924Z,0.82
2023-03-26T15:36:51.016Z,1.05
2023-03-26T15:39:38.290Z,1.15
2023-03-26T15:42:14.235Z,1.42
2023-03-26T15:45:01.382Z,2.17
2023-03-26T15:47:38.161Z,1.50
2023-03-26T15:50:18.441Z,5.28
2023-03-26T15:52:50.460Z,2.58
2023-03-26T15:55:29.232Z,1.73
2023-03-26T15:58:02.239Z,2.35
2023-03-26T16:00:37.084Z,2.88
2023-03-26T16:03:17.652Z,4.20
2023-03-26T16:05:53.518Z,1.90
2023-03-26T16:08:27.886Z,3.80
2023-03-26T16:10:59.071Z,1.58
2023-03-26T16:13:41.874Z,2.22
2023-03-26T16:16:23.763Z,2.10
2023-03-26T16:19:01.325Z,1.90
2023-03-26T16:21:42.436Z,2.65
2023-03-26T16:24:16.829Z,2.28
2023-03-26T16:26:55.792Z,1.73
2023-03-26T16:29:27.268Z,2.70
2023-03-26T16:32:14.206Z,2.33
2023-03-26T16:34:48.518Z,1.83
2023-03-26T16:37:44.047Z,2.08
2023-03-26T16:40:28.672Z,1.60
2023-03-26T16:43:00.215Z,1.92
2023-03-26T16:45:32.429Z,1.40
2023-03-26T16:48:10.342Z,1.92
2023-03-26T16:50:46.365Z,1.67
2023-03-26T16:53:23.448Z,1.50
2023-03-26T16:55:56.493Z,3.65
2023-03-26T16:58:32.445Z,2.08
2023-03-26T17:01:11.162Z,2.92
2023-03-26T17:03:53.388Z,2.42
2023-03-26T17:06:38.666Z,2.53
2023-03-26T17:09:16.240Z,1.60
2023-03-26T17:11:51.770Z,1.60
2023-03-26T17:14:32.920Z,1.30
2023-03-26T17:17:12.569Z,1.75
2023-03-26T17:19:50.268Z,8.48
2023-03-26T17:22:40.357Z,1.50
2023-03-26T17:25:31.648Z,1.83
2023-03-26T17:28:27.665Z,2.45
2023-03-26T17:31:03.483Z,7.32
2023-03-26T17:33:35.012Z,6.53
2023-03-26T17:36:24.386Z,2.35
2023-03-26T17:39:03.296Z,2.40
2023-03-26T17:41:47.926Z,2.15
2023-03-26T17:44:31.682Z,2.17
2023-03-26T17:47:02.966Z,2.35
2023-03-26T17:49:34.789Z,2.70
2023-03-26T17:52:08.876Z,2.47
2023-03-26T17:54:41.418Z,2.20
2023-03-26T17:57:15.986Z,3.28
2023-03-26T17:59:47.770Z,2.58
2023-03-26T18:02:19.264Z,3.10
2023-03-26T18:04:51.330Z,1.80
2023-03-26T18:07:36.282Z,1.55
2023-03-26T18:10:23.432Z,1.42
2023-03-26T18:13:07.561Z,1.48
2023-03-26T18:15:45.083Z,1.90
2023-03-26T18:18:18.505Z,1.70
2023-03-26T18:20:49.367Z,2.25
2023-03-26T18:23:28.284Z,2.30
2023-03-26T18:26:12.467Z,1.90
2023-03-26T18:28:44.504Z,1.88
2023-03-26T18:31:21.602Z,1.83
2023-03-26T18:33:52.051Z,2.20
2023-03-26T18:36:21.987Z,2.20
2023-03-26T18:38:52.784Z,2.17
2023-03-26T18:41:30.618Z,1.63
2023-03-26T18:44:04.216Z,2.40
2023-03-26T18:46:34.640Z,2.97
2023-03-26T18:49:04.765Z,3.88
2023-03-26T18:51:43.211Z,2.88
2023-03-26T18:54:22.309Z,2.15
2023-03-26T18:56:55.312Z,2.67
2023-03-26T18:59:29.150Z,3.10
2023-03-26T19:02:04.560Z,5.43
2023-03-26T19:04:35.148Z,7.13
2023-03-26T19:07:05.191Z,7.72
2023-03-26T19:09:37.856Z,13.00
2023-03-26T19:12:12.014Z,9.90
2023-03-26T19:14:54.408Z,6.85
2023-03-26T19:17:24.325Z,5.93
2023-03-26T19:19:54.166Z,5.70
2023-03-26T19:22:27.948Z,4.90
2023-03-26T19:25:00.264Z,10.30
2023-03-26T19:27:33.038Z,9.93
2023-03-26T19:30:02.815Z,16.40
2023-03-26T19:32:34.802Z,23.98
2023-03-26T19:35:04.727Z,13.73
2023-03-26T19:37:34.782Z,30.70
2023-03-26T19:40:07.483Z,26.48
2023-03-26T19:42:44.165Z,26.67
2023-03-26T19:45:17.728Z,7.50
2023-03-26T19:47:52.023Z,6.18
2023-03-26T19:50:26.500Z,5.78
2023-03-26T19:53:16.706Z,5.50
2023-03-26T19:55:55.833Z,4.85
2023-03-26T19:58:29.029Z,7.15
2023-03-26T20:00:59.163Z,6.30
2023-03-26T20:03:31.736Z,6.82
2023-03-26T20:06:01.467Z,7.40
2023-03-26T20:08:31.279Z,7.35
2023-03-26T20:11:01.042Z,6.93
2023-03-26T20:13:33.489Z,6.47
2023-03-26T20:16:07.438Z,11.23
2023-03-26T20:18:37.859Z,15.90
2023-03-26T20:21:12.317Z,14.48
2023-03-26T20:23:43.311Z,12.15
2023-03-26T20:26:14.385Z,12.13
2023-03-26T20:28:48.382Z,10.23
2023-03-26T20:31:20.188Z,6.18
2023-03-26T20:33:50.077Z,5.40
2023-03-26T20:36:33.201Z,3.95
2023-03-26T20:39:06.182Z,3.58
2023-03-26T20:41:38.303Z,5.20
2023-03-26T20:44:15.431Z,4.28
2023-03-26T20:46:45.666Z,15.65
2023-03-26T20:49:15.576Z,23.08
2023-03-26T20:51:45.613Z,14.90
2023-03-26T20:54:17.868Z,11.38
2023-03-26T20:56:48.156Z,13.38
2023-03-26T20:59:23.032Z,11.48
2023-03-26T21:01:54.719Z,9.50
2023-03-26T21:04:26.544Z,9.32
2023-03-26T21:07:07.250Z,11.00
2023-03-26T21:09:45.678Z,12.38
2023-03-26T21:12:20.803Z,9.90
2023-03-26T21:14:55.811Z,12.07
2023-03-26T21:17:26.430Z,7.13
2023-03-26T21:19:56.484Z,4.50
2023-03-26T21:22:30.826Z,5.22
2023-03-26T21:25:17.441Z,4.80
2023-03-26T21:27:51.771Z,3.80
2023-03-26T21:30:24.688Z,3.53
2023-03-26T21:32:54.514Z,2.38
2023-03-26T21:35:27.763Z,1.90
2023-03-26T21:37:57.907Z,2.22
2023-03-26T21:40:28.207Z,1.23
2023-03-26T21:42:58.231Z,1.90
2023-03-26T21:45:31.066Z,1.58
2023-03-26T21:48:01.154Z,1.70
2023-03-26T21:50:31.611Z,1.50
2023-03-26T21:53:01.699Z,1.33
2023-03-26T21:55:31.839Z,1.35
2023-03-26T21:58:09.939Z,1.80
2023-03-26T22:03:22.862Z,1.27
2023-03-26T22:05:57.732Z,1.30
2023-03-26T22:08:30.176Z,1.52
2023-03-26T22:10:59.890Z,1.70
2023-03-26T22:13:31.198Z,1.73
2023-03-26T22:16:01.066Z,1.50
2023-03-26T22:18:33.416Z,1.90
2023-03-26T22:21:03.208Z,2.22
2023-03-26T22:23:36.700Z,2.10
2023-03-26T22:26:06.537Z,1.73
2023-03-26T22:28:36.619Z,2.10
2023-03-26T22:31:09.322Z,2.42
2023-03-26T22:33:42.024Z,2.33
2023-03-26T22:36:23.408Z,2.15
2023-03-26T22:38:54.959Z,2.13
2023-03-26T22:41:24.729Z,2.70
2023-03-26T22:43:56.829Z,2.95
2023-03-26T22:46:27.942Z,5.65
2023-03-26T22:49:00.741Z,2.60
2023-03-26T22:51:31.973Z,3.10
2023-03-26T22:54:01.665Z,2.50
2023-03-26T22:56:31.372Z,2.42
2023-03-26T22:59:01.442Z,2.33
2023-03-26T23:01:31.292Z,2.28
2023-03-26T23:04:03.700Z,2.45
2023-03-26T23:06:33.579Z,1.77
2023-03-26T23:09:04.416Z,2.75
2023-03-26T23:11:35.025Z,3.10
2023-03-26T23:14:04.736Z,2.85
2023-03-26T23:16:34.752Z,2.35
2023-03-26T23:19:07.281Z,2.50
2023-03-26T23:21:37.120Z,2.42
2023-03-26T23:24:07.506Z,3.45
2023-03-26T23:26:47.980Z,3.42
2023-03-26T23:29:20.645Z,2.78
2023-03-26T23:31:53.116Z,3.40
2023-03-26T23:34:25.439Z,3.33
2023-03-26T23:36:55.387Z,3.55
2023-03-26T23:39:26.348Z,2.95
2023-03-26T23:41:56.074Z,3.80
2023-03-26T23:44:25.726Z,3.22
2023-03-26T23:46:58.160Z,3.28
2023-03-26T23:49:30.491Z,3.10
2023-03-26T23:52:01.155Z,3.03
2023-03-26T23:54:30.862Z,3.30
2023-03-26T23:57:01.075Z,3.45
2023-03-26T23:59:31.048Z,4.20
